Time;durP1;ratioP1;P1;durP2;ratioP2;P2;SDS_P1;SDS_P2;PMS_P1;PMS_P2;Temp;Humidity;BMP_temperature;BMP_pressure;BME280_temperature;BME280_humidity;BME280_pressure;Samples;Min_cycle;Max_cycle;Signal;HPM_P1;HPM_P2
2023/04/08 00:01:08;;;;;;;0.80;0.80;;;;;;;8.87;100.00;100562.09;5050441;28;20242;-74
2023/04/08 00:03:36;;;;;;;0.70;0.70;;;;;;;9.06;100.00;100573.88;5050351;28;20207;-74
2023/04/08 00:06:03;;;;;;;0.77;0.77;;;;;;;8.68;100.00;100549.44;5050728;28;20223;-74
2023/04/08 00:08:30;;;;;;;0.80;0.80;;;;;;;8.88;100.00;100575.06;5050613;28;20326;-73
2023/04/08 00:10:57;;;;;;;0.93;0.93;;;;;;;8.95;100.00;100576.16;5050069;28;20195;-73
2023/04/08 00:13:24;;;;;;;0.67;0.67;;;;;;;8.78;100.00;100574.75;5050873;28;20261;-74
2023/04/08 00:15:51;;;;;;;0.80;0.80;;;;;;;8.87;100.00;100572.44;5050555;28;20196;-74
2023/04/08 00:18:17;;;;;;;0.80;0.80;;;;;;;9.00;100.00;100571.97;5050405;28;20203;-74
2023/04/08 00:20:46;;;;;;;1.57;1.57;;;;;;;9.02;100.00;100578.06;5050569;28;20203;-72
2023/04/08 00:23:12;;;;;;;0.80;0.80;;;;;;;8.95;100.00;100576.16;5050911;28;20203;-74
2023/04/08 00:25:39;;;;;;;0.90;0.90;;;;;;;8.92;100.00;100576.91;5050927;28;20219;-73
2023/04/08 00:28:06;;;;;;;0.87;0.87;;;;;;;8.94;100.00;100580.44;5015035;28;20282;-73
2023/04/08 00:30:33;;;;;;;0.90;0.90;;;;;;;9.00;100.00;100584.00;5050022;28;20203;-74
2023/04/08 00:33:00;;;;;;;0.63;0.63;;;;;;;9.02;100.00;100580.66;5050573;28;20200;-74
2023/04/08 00:35:27;;;;;;;1.07;1.07;;;;;;;9.04;100.00;100578.97;5050595;28;20222;-73
2023/04/08 00:37:55;;;;;;;0.70;0.70;;;;;;;9.12;100.00;100580.09;5048461;28;20211;-74
2023/04/08 00:40:22;;;;;;;0.87;0.87;;;;;;;9.07;100.00;100576.47;5050226;28;20208;-75
2023/04/08 00:42:49;;;;;;;1.00;1.00;;;;;;;8.87;100.00;100552.66;5049943;28;20565;-74
2023/04/08 00:45:16;;;;;;;1.00;1.00;;;;;;;8.84;100.00;100562.03;5032411;28;20838;-73
2023/04/08 00:47:43;;;;;;;0.73;0.73;;;;;;;8.70;100.00;100542.63;5054448;28;20211;-73
2023/04/08 00:50:11;;;;;;;0.70;0.70;;;;;;;8.55;100.00;100547.34;5054301;28;20207;-73
2023/04/08 00:52:37;;;;;;;0.80;0.80;;;;;;;8.62;100.00;100564.78;5054150;28;20268;-74
2023/04/08 00:55:07;;;;;;;0.90;0.90;;;;;;;8.22;100.00;100540.25;5036147;28;20217;-74
2023/04/08 00:57:34;;;;;;;3.90;1.70;;;;;;;8.29;100.00;100565.50;5062493;28;20261;-74
2023/04/08 01:00:01;;;;;;;0.77;0.77;;;;;;;8.37;100.00;100556.28;5062804;28;20215;-74
2023/04/08 01:02:35;;;;;;;1.53;1.43;;;;;;;8.44;100.00;100555.66;5062618;28;20191;-74
2023/04/08 01:05:05;;;;;;;0.80;0.80;;;;;;;8.56;100.00;100556.84;5061356;28;20224;-74
2023/04/08 01:07:35;;;;;;;0.73;0.73;;;;;;;8.57;100.00;100554.31;5046274;28;20606;-74
2023/04/08 01:10:05;;;;;;;0.70;0.70;;;;;;;7.90;100.00;100440.25;5065701;28;20644;-74
2023/04/08 01:12:40;;;;;;;0.90;0.90;;;;;;;8.61;100.00;100552.69;5054216;28;20678;-74
2023/04/08 01:15:11;;;;;;;0.70;0.70;;;;;;;8.65;100.00;100554.53;5051509;28;20264;-75
2023/04/08 01:17:39;;;;;;;0.80;0.80;;;;;;;8.68;100.00;100549.44;5051998;28;20195;-74
2023/04/08 01:20:08;;;;;;;0.70;0.70;;;;;;;8.77;100.00;100549.75;5053339;28;20187;-73
2023/04/08 01:22:46;;;;;;;0.83;0.83;;;;;;;8.81;100.00;100551.59;5053581;28;20586;-73
2023/04/08 01:25:18;;;;;;;0.70;0.70;;;;;;;8.75;100.00;100557.44;5053168;28;20346;-74
2023/04/08 01:27:49;;;;;;;0.70;0.70;;;;;;;8.69;100.00;100557.28;5053695;28;20207;-73
2023/04/08 01:30:18;;;;;;;0.60;0.60;;;;;;;8.55;100.00;100542.19;5053454;28;20206;-74
2023/04/08 01:32:47;;;;;;;0.63;0.63;;;;;;;8.61;100.00;100552.69;5017402;28;20196;-74
2023/04/08 01:35:15;;;;;;;0.70;0.70;;;;;;;8.53;100.00;100539.53;5053090;28;20204;-74
2023/04/08 01:37:43;;;;;;;0.77;0.77;;;;;;;8.42;100.00;100540.91;5052660;28;20200;-75
2023/04/08 01:40:11;;;;;;;0.70;0.70;;;;;;;8.24;100.00;100535.16;5043296;28;20199;-74
2023/04/08 01:42:38;;;;;;;0.70;0.70;;;;;;;8.18;100.00;100517.75;5052835;28;20210;-74
2023/04/08 01:45:09;;;;;;;0.77;0.77;;;;;;;8.27;100.00;100545.59;5053298;28;20651;-72
2023/04/08 01:47:38;;;;;;;1.30;1.30;;;;;;;8.16;100.00;100541.78;5053401;28;20199;-74
2023/04/08 01:50:07;;;;;;;0.70;0.70;;;;;;;8.12;100.00;100540.81;5052786;28;20210;-75
2023/04/08 01:52:35;;;;;;;2.17;2.07;;;;;;;8.18;100.00;100545.28;5049242;28;20196;-74
2023/04/08 01:55:02;;;;;;;0.90;0.90;;;;;;;8.08;100.00;100538.94;5017982;28;20200;-74
2023/04/08 01:57:32;;;;;;;0.83;0.83;;;;;;;8.18;100.00;100548.75;5052268;28;20196;-74
2023/04/08 02:00:03;;;;;;;0.93;0.93;;;;;;;8.18;100.00;100545.28;5053033;28;20686;-74
2023/04/08 02:02:33;;;;;;;0.80;0.80;;;;;;;8.18;100.00;100543.56;5053187;28;20667;-75
2023/04/08 02:05:00;;;;;;;0.90;0.90;;;;;;;7.69;100.00;100480.88;5052709;28;20196;-74
2023/04/08 02:07:26;;;;;;;0.67;0.67;;;;;;;8.14;100.00;100554.63;5001620;28;20207;-74
2023/04/08 02:09:53;;;;;;;0.60;0.60;;;;;;;8.18;100.00;100550.44;5052895;28;20207;-74
2023/04/08 02:12:20;;;;;;;0.70;0.70;;;;;;;8.16;100.00;100545.25;5052683;28;20200;-74
2023/04/08 02:14:47;;;;;;;0.70;0.70;;;;;;;8.09;100.00;100529.50;5052959;28;20214;-72
2023/04/08 02:17:21;;;;;;;0.73;0.73;;;;;;;8.22;100.00;100542.84;5052996;28;20281;-74
2023/04/08 02:19:56;;;;;;;0.60;0.60;;;;;;;8.27;100.00;100554.22;5052765;28;20261;-74
2023/04/08 02:22:30;;;;;;;0.80;0.80;;;;;;;8.23;100.00;100542.03;5052846;28;20575;-75
2023/04/08 02:24:59;;;;;;;0.90;0.90;;;;;;;8.15;100.00;100550.34;5053005;28;20286;-74
2023/04/08 02:27:27;;;;;;;0.90;0.90;;;;;;;7.99;100.00;100517.97;5052680;28;20211;-75
2023/04/08 02:29:56;;;;;;;0.77;0.77;;;;;;;7.99;100.00;100520.56;5052060;28;20192;-74
2023/04/08 02:32:24;;;;;;;0.80;0.80;;;;;;;8.03;100.00;100518.97;5051479;28;20210;-74
2023/04/08 02:34:54;;;;;;;0.60;0.60;;;;;;;8.22;100.00;100545.44;5052626;28;20207;-74
2023/04/08 02:37:21;;;;;;;0.70;0.70;;;;;;;8.12;100.00;100527.00;5051400;28;20314;-74
2023/04/08 02:39:48;;;;;;;0.97;0.97;;;;;;;8.12;100.00;100539.94;5052196;28;20207;-74
2023/04/08 02:42:14;;;;;;;0.60;0.60;;;;;;;8.12;100.00;100542.50;5051492;28;20204;-74
2023/04/08 02:44:41;;;;;;;0.70;0.70;;;;;;;8.14;100.00;100538.25;5052269;28;20195;-73
2023/04/08 02:47:08;;;;;;;0.73;0.73;;;;;;;8.07;100.00;100529.44;5052637;28;20231;-73
2023/04/08 02:49:35;;;;;;;1.10;1.10;;;;;;;8.09;100.00;100551.03;5051744;28;20226;-74
2023/04/08 02:52:03;;;;;;;1.40;1.30;;;;;;;8.16;100.00;100537.50;5051628;28;20199;-75
2023/04/08 02:54:29;;;;;;;0.60;0.60;;;;;;;8.04;100.00;100542.25;5052092;28;20200;-74
2023/04/08 02:56:56;;;;;;;0.70;0.70;;;;;;;8.09;100.00;100543.31;5033371;28;20200;-74
2023/04/08 02:59:23;;;;;;;0.73;0.73;;;;;;;8.09;100.00;100537.25;5051433;28;20288;-75
2023/04/08 03:01:50;;;;;;;1.07;1.07;;;;;;;8.04;100.00;100542.25;5052098;28;20200;-74
2023/04/08 03:04:17;;;;;;;0.70;0.70;;;;;;;7.93;100.00;100528.13;5051548;28;20192;-75
2023/04/08 03:06:43;;;;;;;0.70;0.70;;;;;;;7.57;100.00;100475.28;5052108;28;20225;-75
2023/04/08 03:09:12;;;;;;;0.80;0.80;;;;;;;8.00;100.00;100540.41;5033105;28;20191;-75
2023/04/08 03:11:38;;;;;;;0.60;0.60;;;;;;;7.90;100.00;100536.66;5051501;28;20204;-75
2023/04/08 03:14:05;;;;;;;0.80;0.80;;;;;;;8.00;100.00;100548.16;5051717;28;20195;-75
2023/04/08 03:16:32;;;;;;;0.70;0.70;;;;;;;8.04;100.00;100551.69;5051776;28;20195;-75
2023/04/08 03:18:59;;;;;;;0.70;0.70;;;;;;;8.05;100.00;100559.50;5034742;28;20214;-75
2023/04/08 03:21:25;;;;;;;0.70;0.70;;;;;;;8.06;100.00;100548.38;5051749;28;20203;-74
2023/04/08 03:23:52;;;;;;;0.60;0.60;;;;;;;8.22;100.00;100562.63;5051906;28;20289;-75
2023/04/08 03:26:20;;;;;;;0.67;0.67;;;;;;;8.35;100.00;100564.78;5051239;28;20231;-75
2023/04/08 03:28:47;;;;;;;0.70;0.70;;;;;;;8.25;100.00;100558.44;5049753;28;20662;-75
2023/04/08 03:31:14;;;;;;;0.67;0.67;;;;;;;8.23;100.00;100544.63;5051140;28;20203;-75
2023/04/08 03:33:41;;;;;;;0.70;0.70;;;;;;;8.39;100.00;100562.38;5051863;28;20207;-74
2023/04/08 03:36:08;;;;;;;0.50;0.50;;;;;;;8.35;100.00;100569.97;5051426;28;20196;-74
2023/04/08 03:38:35;;;;;;;0.80;0.80;;;;;;;8.43;100.00;100566.81;5050087;28;20578;-74
2023/04/08 03:41:02;;;;;;;0.40;0.40;;;;;;;8.32;100.00;100570.75;5050464;28;20196;-75
2023/04/08 03:43:30;;;;;;;0.70;0.70;;;;;;;8.30;100.00;100572.44;5050932;28;20198;-75
2023/04/08 03:45:57;;;;;;;0.80;0.80;;;;;;;8.28;100.00;100568.91;5051494;28;20238;-74
2023/04/08 03:48:24;;;;;;;1.20;1.20;;;;;;;8.21;100.00;100556.59;5050883;28;20214;-75
2023/04/08 03:50:50;;;;;;;0.70;0.70;;;;;;;8.25;100.00;100563.59;5050161;28;20223;-75
2023/04/08 03:53:17;;;;;;;0.97;0.97;;;;;;;8.19;100.00;100560.84;5050594;28;20625;-75
2023/04/08 03:55:44;;;;;;;0.67;0.67;;;;;;;8.26;100.00;100564.50;5050861;28;20202;-75
2023/04/08 03:58:11;;;;;;;0.70;0.70;;;;;;;8.23;100.00;100565.28;5050914;28;20200;-75
2023/04/08 04:00:40;;;;;;;0.90;0.90;;;;;;;8.27;100.00;100566.25;5050861;28;20236;-75
2023/04/08 04:03:07;;;;;;;1.83;1.83;;;;;;;8.04;100.00;100570.66;5015922;28;20226;-75
2023/04/08 04:05:34;;;;;;;1.00;1.00;;;;;;;7.99;100.00;100556.72;5051148;28;20215;-74
2023/04/08 04:08:01;;;;;;;0.90;0.90;;;;;;;7.95;100.00;100567.78;5050753;28;20207;-75
2023/04/08 04:10:28;;;;;;;1.27;1.27;;;;;;;7.91;100.00;100568.50;5048679;28;20206;-75
2023/04/08 04:12:54;;;;;;;0.80;0.80;;;;;;;7.81;100.00;100579.38;5049460;28;20211;-75
2023/04/08 04:15:21;;;;;;;0.70;0.70;;;;;;;7.85;100.00;100576.03;5050512;28;20261;-74
2023/04/08 04:17:50;;;;;;;0.83;0.83;;;;;;;7.78;100.00;100569.78;5050298;28;20203;-74
2023/04/08 04:20:16;;;;;;;0.70;0.70;;;;;;;7.91;100.00;100574.56;5049289;28;20207;-74
2023/04/08 04:22:43;;;;;;;0.90;0.90;;;;;;;7.96;100.00;100573.00;5049458;28;20203;-73
2023/04/08 04:25:11;;;;;;;0.97;0.97;;;;;;;8.00;100.00;100576.56;5049822;28;20257;-74
2023/04/08 04:27:37;;;;;;;0.90;0.90;;;;;;;7.94;100.00;100572.06;5048684;28;20227;-74
2023/04/08 04:30:06;;;;;;;0.60;0.60;;;;;;;8.11;100.00;100579.47;5049726;28;20199;-73
2023/04/08 04:32:32;;;;;;;0.70;0.70;;;;;;;8.12;100.00;100579.56;5050538;28;20218;-74
2023/04/08 04:35:01;;;;;;;0.70;0.70;;;;;;;8.26;100.00;100570.53;5050528;28;20204;-74
2023/04/08 04:37:28;;;;;;;0.90;0.90;;;;;;;8.19;100.00;100575.44;5032077;28;20206;-74
2023/04/08 04:39:54;;;;;;;2.30;2.20;;;;;;;8.15;100.00;100571.00;5038232;28;20203;-74
2023/04/08 04:42:21;;;;;;;0.87;0.87;;;;;;;8.17;100.00;100569.38;5049617;28;20200;-75
2023/04/08 04:44:48;;;;;;;0.80;0.80;;;;;;;8.12;100.00;100570.91;5037310;28;20204;-74
2023/04/08 04:47:15;;;;;;;3.60;3.30;;;;;;;7.97;100.00;100567.00;5038400;28;20246;-74
2023/04/08 04:49:42;;;;;;;1.10;1.10;;;;;;;8.25;100.00;100579.09;5049502;28;20211;-74
2023/04/08 04:52:10;;;;;;;0.60;0.60;;;;;;;8.54;100.00;100587.81;5050233;28;20701;-73
2023/04/08 04:54:37;;;;;;;0.70;0.70;;;;;;;8.63;100.00;100593.28;5050237;28;20591;-74
2023/04/08 04:57:04;;;;;;;0.53;0.53;;;;;;;8.73;100.00;100594.44;5050400;28;20207;-75
2023/04/08 04:59:31;;;;;;;0.73;0.73;;;;;;;8.80;100.00;100598.97;5050356;28;20227;-75
2023/04/08 05:01:58;;;;;;;0.60;0.60;;;;;;;8.82;100.00;100600.75;5050708;28;20198;-75
2023/04/08 05:04:25;;;;;;;0.70;0.70;;;;;;;8.87;100.00;100595.72;5051017;28;20202;-75
2023/04/08 05:06:52;;;;;;;0.70;0.70;;;;;;;8.94;100.00;100611.47;5050399;28;20230;-74
2023/04/08 05:09:20;;;;;;;0.87;0.87;;;;;;;9.15;100.00;100611.22;5049872;28;20199;-73
2023/04/08 05:11:47;;;;;;;0.70;0.70;;;;;;;9.20;100.00;100613.94;5051187;28;20207;-74
2023/04/08 05:14:13;;;;;;;0.60;0.60;;;;;;;9.19;100.00;100591.50;5054393;28;20202;-74
2023/04/08 05:16:40;;;;;;;0.70;0.70;;;;;;;9.41;100.00;100599.91;5061356;28;20208;-73
2023/04/08 05:19:07;;;;;;;0.60;0.60;;;;;;;9.48;100.00;100605.25;5059312;28;20202;-74
2023/04/08 05:21:34;;;;;;;1.13;1.13;;;;;;;9.52;100.00;100607.09;5041817;28;20600;-74
2023/04/08 05:24:00;;;;;;;0.70;0.70;;;;;;;9.63;100.00;100609.09;5044274;28;20200;-74
2023/04/08 05:26:29;;;;;;;0.70;0.70;;;;;;;9.77;100.00;100610.38;5043553;28;20294;-75
2023/04/08 05:28:55;;;;;;;0.80;0.80;;;;;;;9.64;100.00;100612.56;5041801;28;20200;-76
2023/04/08 05:31:22;;;;;;;0.60;0.60;;;;;;;9.46;100.00;100613.84;5049818;28;20214;-75
2023/04/08 05:33:49;;;;;;;0.70;0.70;;;;;;;9.19;100.00;100618.25;5052689;28;20218;-76
2023/04/08 05:36:16;;;;;;;1.60;1.40;;;;;;;9.57;100.00;100603.78;5053552;28;20196;-75
2023/04/08 05:38:43;;;;;;;0.83;0.83;;;;;;;9.59;100.00;100606.41;5053416;28;20225;-74
2023/04/08 05:41:10;;;;;;;0.60;0.60;;;;;;;9.54;100.00;100579.50;5052857;28;20204;-74
2023/04/08 05:43:38;;;;;;;0.90;0.90;;;;;;;9.65;100.00;100602.28;5052909;28;20199;-73
2023/04/08 05:46:08;;;;;;;2.13;2.07;;;;;;;9.82;100.00;100616.53;5052875;28;20854;-73
2023/04/08 05:48:35;;;;;;;0.63;0.63;;;;;;;9.51;100.00;100611.38;5053433;28;20195;-73
2023/04/08 05:51:02;;;;;;;1.67;1.67;;;;;;;9.22;100.00;100618.31;5052977;28;20203;-73
2023/04/08 05:53:29;;;;;;;1.93;1.83;;;;;;;9.40;100.00;100618.84;5052783;28;20200;-74
2023/04/08 05:55:56;;;;;;;2.53;2.10;;;;;;;9.61;100.00;100613.38;5032423;28;20198;-73
2023/04/08 05:58:22;;;;;;;0.87;0.87;;;;;;;9.80;100.00;100617.34;5052843;28;20211;-74
2023/04/08 06:00:51;;;;;;;1.15;1.15;;;;;;;10.15;100.00;100603.63;5033595;28;20223;-72
2023/04/08 06:03:17;;;;;;;0.90;0.90;;;;;;;9.52;100.00;100607.97;5052963;28;20207;-75
2023/04/08 06:05:44;;;;;;;0.90;0.90;;;;;;;9.35;100.00;100612.66;5051866;28;20207;-74
2023/04/08 06:08:11;;;;;;;0.70;0.70;;;;;;;9.32;100.00;100609.97;5049540;28;20239;-73
2023/04/08 06:10:38;;;;;;;0.77;0.77;;;;;;;9.42;100.00;100606.81;5051996;28;20694;-73
2023/04/08 06:13:04;;;;;;;1.30;1.30;;;;;;;9.24;100.00;100616.66;5052665;28;20199;-73
2023/04/08 06:15:31;;;;;;;1.77;1.67;;;;;;;9.40;100.00;100613.66;5052716;28;20633;-74
2023/04/08 06:17:59;;;;;;;0.80;0.80;;;;;;;9.60;100.00;100614.22;5041297;28;20219;-74
2023/04/08 06:20:27;;;;;;;0.80;0.80;;;;;;;9.29;100.00;100617.66;5052284;28;20219;-75
2023/04/08 06:22:53;;;;;;;0.80;0.80;;;;;;;9.02;100.00;100616.88;5052572;28;20653;-74
2023/04/08 06:25:20;;;;;;;0.90;0.90;;;;;;;8.89;100.00;100583.69;5052690;28;20199;-74
2023/04/08 06:27:47;;;;;;;0.70;0.70;;;;;;;9.65;100.00;100603.97;5051769;28;20247;-75
2023/04/08 06:30:15;;;;;;;0.90;0.90;;;;;;;10.03;100.00;100608.44;5052045;28;20224;-73
2023/04/08 06:32:41;;;;;;;0.70;0.70;;;;;;;10.25;100.00;100609.91;5051572;28;20651;-76
2023/04/08 06:35:10;;;;;;;0.63;0.63;;;;;;;10.40;100.00;100595.59;5052549;28;20296;-74
2023/04/08 06:37:37;;;;;;;1.00;1.00;;;;;;;10.57;100.00;100613.25;5051436;28;20215;-78
2023/04/08 06:40:05;;;;;;;1.25;1.15;;;;;;;10.40;100.00;100608.56;5051518;28;20295;-77
2023/04/08 06:42:32;;;;;;;0.90;0.90;;;;;;;10.55;100.00;100620.13;5052905;28;20195;-75
2023/04/08 06:44:59;;;;;;;0.80;0.80;;;;;;;10.43;100.00;100618.13;5052017;28;20215;-74
2023/04/08 06:47:26;;;;;;;0.80;0.80;;;;;;;10.92;100.00;100626.19;5052018;28;20265;-73
2023/04/08 06:49:53;;;;;;;0.80;0.80;;;;;;;11.04;100.00;100628.19;5032687;28;20211;-78
2023/04/08 06:52:21;;;;;;;0.82;0.82;;;;;;;11.36;100.00;100627.16;5052219;28;20393;-76
2023/04/08 06:54:48;;;;;;;0.80;0.80;;;;;;;11.27;98.97;100606.16;5051233;28;20212;-74
2023/04/08 06:57:14;;;;;;;0.60;0.60;;;;;;;11.06;100.00;100621.28;5049098;28;20206;-76
2023/04/08 06:59:41;;;;;;;0.70;0.70;;;;;;;11.13;98.44;100589.44;5050284;28;20231;-78
2023/04/08 07:02:08;;;;;;;0.82;0.82;;;;;;;11.45;95.80;100627.31;5029603;28;20208;-77
2023/04/08 07:04:35;;;;;;;0.70;0.70;;;;;;;11.61;95.15;100627.63;5050903;28;21022;-75
2023/04/08 07:07:01;;;;;;;0.77;0.77;;;;;;;11.88;92.89;100609.97;5050590;28;20318;-76
2023/04/08 07:09:29;;;;;;;2.55;2.45;;;;;;;11.20;96.00;100632.00;5051023;28;20207;-76
2023/04/08 07:11:57;;;;;;;1.75;1.65;;;;;;;11.22;96.13;100628.59;5051107;28;20203;-77
2023/04/08 07:14:24;;;;;;;0.98;0.98;;;;;;;11.31;96.82;100627.88;5052036;28;20206;-77
2023/04/08 07:16:50;;;;;;;0.90;0.90;;;;;;;11.62;96.01;100629.38;5046520;28;20211;-75
2023/04/08 07:19:17;;;;;;;0.80;0.80;;;;;;;11.29;96.77;100612.28;5023248;28;20216;-76
2023/04/08 07:21:44;;;;;;;1.08;1.08;;;;;;;11.78;95.85;100641.84;5046870;28;20225;-77
2023/04/08 07:24:10;;;;;;;3.22;1.88;;;;;;;11.70;94.10;100638.22;5050914;28;20218;-75
2023/04/08 07:26:39;;;;;;;1.05;1.05;;;;;;;11.92;92.23;100636.06;5031318;28;20203;-72
2023/04/08 07:29:06;;;;;;;0.95;0.95;;;;;;;12.01;92.08;100634.47;5046498;28;20195;-75
2023/04/08 07:31:33;;;;;;;0.80;0.80;;;;;;;11.92;89.38;100609.19;5048751;28;20242;-75
2023/04/08 07:34:00;;;;;;;0.95;0.95;;;;;;;12.03;86.06;100612.88;5030257;28;20204;-76
2023/04/08 07:36:27;;;;;;;0.70;0.70;;;;;;;12.25;86.42;100641.00;5049633;28;20250;-76
2023/04/08 07:38:53;;;;;;;0.73;0.73;;;;;;;12.24;93.92;100644.44;5047842;28;20222;-76
2023/04/08 07:41:20;;;;;;;1.00;1.00;;;;;;;11.75;87.51;100647.00;5049644;28;20203;-77
2023/04/08 07:43:49;;;;;;;0.90;0.90;;;;;;;11.80;88.43;100645.38;5050477;28;20224;-77
2023/04/08 07:46:15;;;;;;;0.80;0.80;;;;;;;11.70;84.97;100607.88;5050364;28;20196;-77
2023/04/08 07:48:42;;;;;;;1.35;1.35;;;;;;;12.03;84.04;100633.66;5049557;28;20231;-77
2023/04/08 07:51:10;;;;;;;0.90;0.90;;;;;;;12.14;84.25;100624.31;5049555;28;20203;-77
2023/04/08 07:53:36;;;;;;;0.70;0.70;;;;;;;12.28;83.35;100646.22;5050037;28;20226;-75
2023/04/08 07:56:03;;;;;;;0.57;0.57;;;;;;;12.41;80.82;100642.97;5014086;28;20219;-74
2023/04/08 07:58:31;;;;;;;2.10;1.25;;;;;;;12.61;80.12;100650.25;5012994;28;20294;-76
2023/04/08 08:00:59;;;;;;;0.80;0.80;;;;;;;12.82;77.99;100641.03;5050247;28;20306;-74
2023/04/08 08:03:26;;;;;;;0.60;0.60;;;;;;;12.87;76.00;100659.34;5014745;28;20684;-72
2023/04/08 08:05:53;;;;;;;1.13;1.13;;;;;;;13.35;75.27;100652.22;5049765;28;20199;-71
2023/04/08 08:08:20;;;;;;;0.95;0.95;;;;;;;13.00;73.09;100648.25;5049542;28;20783;-70
2023/04/08 08:10:46;;;;;;;1.48;1.48;;;;;;;13.35;71.26;100659.16;5050316;28;20286;-72
2023/04/08 08:13:16;;;;;;;0.70;0.70;;;;;;;13.33;75.62;100660.88;5050058;28;20211;-75
2023/04/08 08:15:42;;;;;;;0.70;0.70;;;;;;;13.15;79.75;100660.63;5050306;28;20223;-74
2023/04/08 08:18:10;;;;;;;0.52;0.52;;;;;;;13.35;72.30;100657.44;5050213;28;20210;-75
2023/04/08 08:20:37;;;;;;;1.55;1.55;;;;;;;13.02;72.89;100651.72;5050253;28;20207;-74
2023/04/08 08:23:04;;;;;;;0.73;0.73;;;;;;;12.73;73.88;100668.66;5050204;28;20679;-75
2023/04/08 08:25:31;;;;;;;0.75;0.75;;;;;;;12.99;74.62;100658.63;5049312;28;20564;-75
2023/04/08 08:27:57;;;;;;;0.85;0.85;;;;;;;12.60;72.95;100659.75;5049316;28;20713;-75
2023/04/08 08:30:25;;;;;;;0.80;0.80;;;;;;;12.73;73.74;100651.31;5049071;28;20214;-78
2023/04/08 08:32:52;;;;;;;0.73;0.73;;;;;;;12.61;74.79;100645.91;5049880;28;20200;-78
2023/04/08 08:35:20;;;;;;;0.60;0.60;;;;;;;12.48;77.29;100646.59;5050341;28;20214;-76
2023/04/08 08:37:47;;;;;;;1.45;1.45;;;;;;;12.36;75.04;100633.38;5050031;28;20210;-75
2023/04/08 08:40:14;;;;;;;0.60;0.60;;;;;;;12.66;76.24;100643.41;5050256;28;20203;-76
2023/04/08 08:42:41;;;;;;;0.93;0.93;;;;;;;12.94;77.62;100640.34;5050523;28;20221;-75
2023/04/08 08:45:08;;;;;;;0.73;0.73;;;;;;;13.12;74.42;100639.75;5049772;28;20207;-74
2023/04/08 08:47:35;;;;;;;2.83;1.90;;;;;;;12.96;71.56;100623.00;5050093;28;20297;-76
2023/04/08 08:50:02;;;;;;;1.17;1.00;;;;;;;12.93;71.97;100643.78;5035658;28;20195;-74
2023/04/08 08:52:31;;;;;;;0.50;0.50;;;;;;;12.99;72.25;100650.81;5050329;28;20207;-74
2023/04/08 08:55:00;;;;;;;0.80;0.80;;;;;;;12.79;73.98;100647.94;5050237;28;20199;-74
2023/04/08 08:57:27;;;;;;;0.85;0.85;;;;;;;12.78;72.27;100648.78;5049259;28;20644;-77
2023/04/08 08:59:53;;;;;;;0.60;0.60;;;;;;;12.80;72.40;100652.28;5049037;28;20239;-75
2023/04/08 09:02:26;;;;;;;1.65;1.30;;;;;;;13.44;70.74;100653.19;5049914;28;20199;-76
2023/04/08 09:04:58;;;;;;;0.70;0.70;;;;;;;13.68;68.20;100633.53;5049317;28;20207;-73
2023/04/08 09:07:26;;;;;;;0.70;0.70;;;;;;;13.67;66.94;100651.72;5052824;28;20667;-75
2023/04/08 09:09:55;;;;;;;0.70;0.70;;;;;;;13.70;66.14;100638.72;5053685;28;20289;-77
2023/04/08 09:12:22;;;;;;;0.60;0.60;;;;;;;13.26;68.74;100633.88;5053927;28;20597;-76
2023/04/08 09:14:49;;;;;;;1.23;1.23;;;;;;;13.49;67.55;100638.47;5053676;28;20595;-75
2023/04/08 09:17:31;;;;;;;0.80;0.80;;;;;;;13.70;65.42;100589.22;5053480;28;20215;-74
2023/04/08 09:20:08;;;;;;;1.10;1.10;;;;;;;14.13;64.51;100653.97;5053919;28;20253;-76
2023/04/08 09:22:35;;;;;;;0.70;0.70;;;;;;;13.87;63.88;100655.47;5044576;28;20214;-76
2023/04/08 09:25:23;;;;;;;5.93;1.38;;;;;;;14.27;63.94;100668.00;5053485;28;20212;-76
2023/04/08 09:27:50;;;;;;;1.02;1.02;;;;;;;14.45;63.29;100671.72;5053521;28;20231;-73
2023/04/08 09:30:17;;;;;;;0.60;0.60;;;;;;;14.56;61.52;100677.88;5052885;28;20288;-76
2023/04/08 09:32:48;;;;;;;0.70;0.70;;;;;;;14.76;61.61;100673.69;5053614;28;20674;-75
2023/04/08 09:35:16;;;;;;;0.80;0.80;;;;;;;14.81;60.00;100675.47;5053060;28;20204;-73
2023/04/08 09:37:43;;;;;;;0.90;0.90;;;;;;;15.54;61.06;100675.06;5053285;28;20282;-73
2023/04/08 09:40:12;;;;;;;0.50;0.50;;;;;;;15.85;57.94;100671.69;5034627;28;20199;-72
2023/04/08 09:42:44;;;;;;;0.60;0.60;;;;;;;15.84;56.38;100641.16;5053408;28;20245;-73
2023/04/08 09:45:12;;;;;;;0.80;0.80;;;;;;;15.51;56.35;100662.00;5051773;28;20210;-72
2023/04/08 09:47:49;;;;;;;1.13;1.13;;;;;;;14.65;58.09;100670.13;5052367;28;20230;-73
2023/04/08 09:50:18;;;;;;;0.70;0.70;;;;;;;14.42;60.00;100666.44;5052529;28;20199;-71
2023/04/08 09:52:53;;;;;;;0.70;0.70;;;;;;;14.84;59.46;100661.56;5016392;28;20195;-76
2023/04/08 09:55:23;;;;;;;0.90;0.90;;;;;;;14.74;58.99;100660.63;5042006;28;20666;-73
2023/04/08 09:57:55;;;;;;;0.70;0.70;;;;;;;14.58;59.19;100663.13;5052382;28;20631;-73
2023/04/08 10:00:28;;;;;;;1.23;1.23;;;;;;;14.71;59.14;100659.72;5052387;28;20230;-73
2023/04/08 10:03:00;;;;;;;0.63;0.63;;;;;;;15.39;58.23;100654.91;5052856;28;20241;-74
2023/04/08 10:05:28;;;;;;;1.08;1.08;;;;;;;15.38;56.34;100655.78;5052218;28;20203;-74
2023/04/08 10:07:57;;;;;;;0.70;0.70;;;;;;;16.22;54.93;100654.34;5052716;28;20229;-74
2023/04/08 10:10:26;;;;;;;1.08;1.08;;;;;;;15.66;55.30;100655.06;5051865;28;20286;-74
2023/04/08 10:12:53;;;;;;;0.70;0.70;;;;;;;15.94;55.73;100647.31;5052061;28;20689;-73
2023/04/08 10:15:24;;;;;;;0.70;0.70;;;;;;;16.47;53.10;100655.22;5052733;28;20645;-75
2023/04/08 10:17:51;;;;;;;0.70;0.70;;;;;;;16.38;52.70;100656.97;5052128;28;20224;-72
2023/04/08 10:20:43;;;;;;;0.80;0.80;;;;;;;16.16;54.23;100641.25;5033470;28;20678;-75
2023/04/08 10:23:12;;;;;;;0.50;0.50;;;;;;;15.41;55.91;100623.59;5047965;28;20231;-71
2023/04/08 10:25:42;;;;;;;0.70;0.70;;;;;;;15.57;55.25;100646.31;5052234;28;20261;-73
2023/04/08 10:28:25;;;;;;;0.70;0.70;;;;;;;15.36;56.79;100585.25;5052227;28;20231;-73
2023/04/08 10:30:52;;;;;;;0.63;0.63;;;;;;;15.65;57.30;100642.00;5052064;28;20207;-74
2023/04/08 10:33:21;;;;;;;0.70;0.70;;;;;;;15.18;54.64;100647.84;5052320;28;20206;-74
2023/04/08 10:35:49;;;;;;;0.60;0.60;;;;;;;15.30;53.98;100645.28;5032620;28;20199;-76
2023/04/08 10:38:17;;;;;;;0.82;0.82;;;;;;;14.94;55.93;100644.22;5052414;28;20675;-73
2023/04/08 10:40:47;;;;;;;0.70;0.70;;;;;;;15.28;58.11;100622.63;5051547;28;20279;-75
2023/04/08 10:43:15;;;;;;;0.70;0.70;;;;;;;15.68;56.79;100640.25;5052353;28;20200;-74
2023/04/08 10:45:43;;;;;;;0.70;0.70;;;;;;;15.72;55.20;100623.72;5052151;28;20199;-73
2023/04/08 10:48:15;;;;;;;0.60;0.60;;;;;;;15.90;54.46;100625.50;5052066;28;20230;-73
2023/04/08 10:50:42;;;;;;;1.42;1.42;;;;;;;16.26;55.13;100620.34;5051669;28;20298;-73
2023/04/08 10:53:10;;;;;;;0.63;0.63;;;;;;;16.11;52.75;100642.97;5051841;28;20215;-75
2023/04/08 10:55:37;;;;;;;1.15;1.15;;;;;;;15.50;51.58;100636.72;5051760;28;20651;-74
2023/04/08 10:58:11;;;;;;;0.70;0.70;;;;;;;15.95;54.06;100625.50;5032742;28;20214;-75
2023/04/08 11:00:39;;;;;;;0.60;0.60;;;;;;;16.26;51.50;100640.38;5051305;28;20791;-72
2023/04/08 11:03:07;;;;;;;0.77;0.77;;;;;;;16.27;52.73;100618.56;5033011;28;20562;-73
2023/04/08 11:05:35;;;;;;;0.70;0.70;;;;;;;16.23;51.42;100635.16;5051478;28;20245;-74
2023/04/08 11:08:03;;;;;;;0.75;0.75;;;;;;;16.14;51.98;100628.16;5050831;28;20203;-77
2023/04/08 11:10:30;;;;;;;0.68;0.68;;;;;;;16.21;50.68;100629.91;5051153;28;20198;-73
2023/04/08 11:12:58;;;;;;;0.60;0.60;;;;;;;16.30;49.71;100618.59;5051239;28;20196;-73
2023/04/08 11:15:26;;;;;;;0.75;0.75;;;;;;;15.88;51.52;100622.00;5051666;28;20222;-73
2023/04/08 11:17:54;;;;;;;0.70;0.70;;;;;;;15.92;53.18;100623.75;5050938;28;20212;-72
2023/04/08 11:20:21;;;;;;;0.60;0.60;;;;;;;15.93;52.22;100604.59;5050910;28;20208;-73
2023/04/08 11:22:48;;;;;;;0.60;0.60;;;;;;;16.03;51.93;100622.03;5032812;28;20236;-76
2023/04/08 11:25:15;;;;;;;0.80;0.80;;;;;;;15.57;53.31;100626.28;5052084;28;20215;-73
2023/04/08 11:27:42;;;;;;;0.70;0.70;;;;;;;15.90;54.73;100599.34;5055664;28;20207;-73